Thomson Dream — 9HA2381 — position and weather

sailwx.info

Track history (hours):
 
Tides and Currents Weather Stations Pressure Air Temp Water Temp Dewpoint Dewpoint Depression Visibility Wind Speed Wind Dir Waves Ship Positions

Thomson Dream

Last reported at 2016-Jun-30 20:32 UTC. Time now 2016-Jul-02 07:41 UTC.
Position N 40°59' E 018°53'.

Length 243 m; draft 7.6 m.

Type: Ship. MMSI: 248480975.

Date/timePositionNaut miles runAvg speedWind from/ knotsBaromVisibWave heightAir tempDewpointWater temp
2016-Jun-30 20:32N 40°59' E 018°53'5518.3
2016-Jun-30 17:33N 41°52' E 018°40'1818.1
2016-Jun-30 16:33N 42°10' E 018°36'1615.8
2016-Jun-30 15:33N 42°25' E 018°32'7 7.0
2016-Jun-30 14:34N 42°28' E 018°41'4 4.1
2016-Jun-30 13:31N 42°26' E 018°46'0 0.0
2016-Jun-30 12:31N 42°26' E 018°46'0 0.0
2016-Jun-30 11:31N 42°26' E 018°46'0 0.0
2016-Jun-30 10:31N 42°26' E 018°46'0 0.0
2016-Jun-30 09:31N 42°26' E 018°46'0 0.0
2016-Jun-30 08:31N 42°26' E 018°46'0 0.0
2016-Jun-30 07:31N 42°26' E 018°46'0 0.0
2016-Jun-30 06:31N 42°26' E 018°46'0 0.0
2016-Jun-30 05:31N 42°26' E 018°46'0 0.0
2016-Jun-30 04:33N 42°26' E 018°46'4 4.1
2016-Jun-30 03:33N 42°27' E 018°40'7 6.6
2016-Jun-30 02:33N 42°24' E 018°33'7 6.5
2016-Jun-30 01:29N 42°17' E 018°29'0 0.4
2016-Jun-30 00:26N 42°17' E 018°29'0 0.3
2016-Jun-29 23:32N 42°17' E 018°29'2 2.3
2016-Jun-29 22:33N 42°18' E 018°32'3 3.3
2016-Jun-29 21:34N 42°15' E 018°34'8 8.0
2016-Jun-29 20:34N 42°10' E 018°43'1111.1
2016-Jun-29 19:34N 42°14' E 018°29'1111.1
2016-Jun-29 18:33N 42°22' E 018°19'1111.2
2016-Jun-29 17:34N 42°30' E 018°08'272 5.8
2016-Jun-27 18:20N 45°12' E 013°04'1516.9
2016-Jun-27 17:26N 45°22' E 012°48'1416.3
2016-Jun-27 16:34N 45°24' E 012°28'7 7.0
2016-Jun-27 15:33N 45°26' E 012°19'1 0.5
2016-Jun-27 14:32N 45°26' E 012°19'0 0.0
2016-Jun-27 13:30N 45°26' E 012°19'0 0.0
2016-Jun-27 12:33N 45°26' E 012°19'0 0.0
2016-Jun-27 11:33N 45°26' E 012°19'0 0.0
2016-Jun-27 10:27N 45°26' E 012°19'0 0.0
2016-Jun-27 09:30N 45°26' E 012°19'0 0.0
2016-Jun-27 08:33N 45°26' E 012°19'0 0.0
2016-Jun-27 07:30N 45°26' E 012°19'0 0.0
2016-Jun-27 06:33N 45°26' E 012°19'0 0.0
2016-Jun-27 05:27N 45°26' E 012°19'3 3.1
2016-Jun-27 04:34N 45°25' E 012°22'9 8.6
2016-Jun-27 03:33N 45°22' E 012°34'7 6.9
2016-Jun-27 02:33N 45°21' E 012°43'1 0.7
2016-Jun-27 01:33N 45°21' E 012°44'3 3.2
2016-Jun-27 00:33N 45°22' E 012°49'1211.6
2016-Jun-26 23:33N 45°28' E 013°03'1212.0
2016-Jun-26 22:33N 45°33' E 013°19'1211.8
2016-Jun-26 21:33N 45°37' E 013°34'9 0.5
2016-Jun-26 04:05N 45°32' E 013°25'510.1
2016-Jun-26 03:34N 45°28' E 013°19'1110.5
2016-Jun-26 02:33N 45°18' E 013°14'1212.0
2016-Jun-26 01:34N 45°07' E 013°18'1211.7
2016-Jun-26 00:33N 44°56' E 013°24'1212.2
2016-Jun-25 23:33N 44°45' E 013°33'  
2016-Jun-23 04:31N 38°07' E 020°28'220 6.2
2016-Jun-21 17:16N 37°07' E 024°55'811.5
2016-Jun-21 16:33N 37°15' E 024°58'11 0.9
2016-Jun-21 04:08N 37°26' E 024°57'3 5.9
2016-Jun-21 03:33N 37°26' E 025°01'5 4.6
2016-Jun-21 02:34N 37°25' E 025°07'1 1.4
2016-Jun-21 01:34N 37°25' E 025°09'10 9.7
2016-Jun-21 00:33N 37°19' E 025°19'2311.5
2016-Jun-20 22:34N 37°19' E 025°48'  
Track history (hours):
 
Tides and Currents Weather Stations Pressure Air Temp Water Temp Dewpoint Dewpoint Depression Visibility Wind Speed Wind Dir Waves Ship Positions

Thomson Dream

Last reported at 2016-Jun-30 20:32 UTC. Time now 2016-Jul-02 07:41 UTC.
Position N 40°59' E 018°53'.

Length 243 m; draft 7.6 m.

Type: Ship. MMSI: 248480975.

Date/timePositionNaut miles runAvg speedWind from/ knotsBaromVisibWave heightAir tempDewpointWater temp
2016-Jun-30 20:32N 40°59' E 018°53'5518.3
2016-Jun-30 17:33N 41°52' E 018°40'1818.1
2016-Jun-30 16:33N 42°10' E 018°36'1615.8
2016-Jun-30 15:33N 42°25' E 018°32'7 7.0
2016-Jun-30 14:34N 42°28' E 018°41'4 4.1
2016-Jun-30 13:31N 42°26' E 018°46'0 0.0
2016-Jun-30 12:31N 42°26' E 018°46'0 0.0
2016-Jun-30 11:31N 42°26' E 018°46'0 0.0
2016-Jun-30 10:31N 42°26' E 018°46'0 0.0
2016-Jun-30 09:31N 42°26' E 018°46'0 0.0
2016-Jun-30 08:31N 42°26' E 018°46'0 0.0
2016-Jun-30 07:31N 42°26' E 018°46'0 0.0
2016-Jun-30 06:31N 42°26' E 018°46'0 0.0
2016-Jun-30 05:31N 42°26' E 018°46'0 0.0
2016-Jun-30 04:33N 42°26' E 018°46'4 4.1
2016-Jun-30 03:33N 42°27' E 018°40'7 6.6
2016-Jun-30 02:33N 42°24' E 018°33'7 6.5
2016-Jun-30 01:29N 42°17' E 018°29'0 0.4
2016-Jun-30 00:26N 42°17' E 018°29'0 0.3
2016-Jun-29 23:32N 42°17' E 018°29'2 2.3
2016-Jun-29 22:33N 42°18' E 018°32'3 3.3
2016-Jun-29 21:34N 42°15' E 018°34'8 8.0
2016-Jun-29 20:34N 42°10' E 018°43'1111.1
2016-Jun-29 19:34N 42°14' E 018°29'1111.1
2016-Jun-29 18:33N 42°22' E 018°19'1111.2
2016-Jun-29 17:34N 42°30' E 018°08'272 5.8
2016-Jun-27 18:20N 45°12' E 013°04'1516.9
2016-Jun-27 17:26N 45°22' E 012°48'1416.3
2016-Jun-27 16:34N 45°24' E 012°28'7 7.0
2016-Jun-27 15:33N 45°26' E 012°19'1 0.5
2016-Jun-27 14:32N 45°26' E 012°19'0 0.0
2016-Jun-27 13:30N 45°26' E 012°19'0 0.0
2016-Jun-27 12:33N 45°26' E 012°19'0 0.0
2016-Jun-27 11:33N 45°26' E 012°19'0 0.0
2016-Jun-27 10:27N 45°26' E 012°19'0 0.0
2016-Jun-27 09:30N 45°26' E 012°19'0 0.0
2016-Jun-27 08:33N 45°26' E 012°19'0 0.0
2016-Jun-27 07:30N 45°26' E 012°19'0 0.0
2016-Jun-27 06:33N 45°26' E 012°19'0 0.0
2016-Jun-27 05:27N 45°26' E 012°19'3 3.1
2016-Jun-27 04:34N 45°25' E 012°22'9 8.6
2016-Jun-27 03:33N 45°22' E 012°34'7 6.9
2016-Jun-27 02:33N 45°21' E 012°43'1 0.7
2016-Jun-27 01:33N 45°21' E 012°44'3 3.2
2016-Jun-27 00:33N 45°22' E 012°49'1211.6
2016-Jun-26 23:33N 45°28' E 013°03'1212.0
2016-Jun-26 22:33N 45°33' E 013°19'1211.8
2016-Jun-26 21:33N 45°37' E 013°34'9 0.5
2016-Jun-26 04:05N 45°32' E 013°25'510.1
2016-Jun-26 03:34N 45°28' E 013°19'1110.5
2016-Jun-26 02:33N 45°18' E 013°14'1212.0
2016-Jun-26 01:34N 45°07' E 013°18'1211.7
2016-Jun-26 00:33N 44°56' E 013°24'1212.2
2016-Jun-25 23:33N 44°45' E 013°33'  
2016-Jun-23 04:31N 38°07' E 020°28'220 6.2
2016-Jun-21 17:16N 37°07' E 024°55'811.5
2016-Jun-21 16:33N 37°15' E 024°58'11 0.9
2016-Jun-21 04:08N 37°26' E 024°57'3 5.9
2016-Jun-21 03:33N 37°26' E 025°01'5 4.6
2016-Jun-21 02:34N 37°25' E 025°07'1 1.4
2016-Jun-21 01:34N 37°25' E 025°09'10 9.7
2016-Jun-21 00:33N 37°19' E 025°19'2311.5
2016-Jun-20 22:34N 37°19' E 025°48'  

Dump ship's entire track history